Time;durP1;ratioP1;P1;durP2;ratioP2;P2;SDS_P1;SDS_P2;PMS_P1;PMS_P2;Temp;Humidity;BMP_temperature;BMP_pressure;BME280_temperature;BME280_humidity;BME280_pressure;Samples;Min_cycle;Max_cycle;Signal;HPM_P1;HPM_P2
2022/11/24 00:01:58;;;;;;;20.73;6.90;;;6.80;99.90;;;;;;5031588;28;20263;-74
2022/11/24 00:04:24;;;;;;;26.15;7.22;;;6.80;99.90;;;;;;5034793;28;20385;-73
2022/11/24 00:06:52;;;;;;;22.88;7.10;;;6.80;99.90;;;;;;5031126;28;20041;-73
2022/11/24 00:09:17;;;;;;;23.13;7.40;;;6.70;99.90;;;;;;5031777;28;20052;-73
2022/11/24 00:11:43;;;;;;;18.85;6.93;;;6.70;99.90;;;;;;5031414;28;20061;-74
2022/11/24 00:14:09;;;;;;;32.35;7.45;;;6.70;99.90;;;;;;5031221;28;20034;-73
2022/11/24 00:16:36;;;;;;;23.88;6.80;;;6.60;99.90;;;;;;5030883;28;20394;-74
2022/11/24 00:19:04;;;;;;;19.73;6.22;;;6.70;99.90;;;;;;5041854;28;20422;-74
2022/11/24 00:21:31;;;;;;;19.95;7.13;;;6.60;99.90;;;;;;5053874;28;20013;-74
2022/11/24 00:23:57;;;;;;;22.10;7.10;;;6.70;99.90;;;;;;5051214;28;20018;-74
2022/11/24 00:26:33;;;;;;;20.58;7.28;;;6.70;99.90;;;;;;5053507;28;20029;-75
2022/11/24 00:29:02;;;;;;;25.00;7.57;;;6.60;99.90;;;;;;5055166;28;20033;-74
2022/11/24 00:31:38;;;;;;;26.50;7.85;;;6.70;99.90;;;;;;5042066;28;20030;-75
2022/11/24 00:34:06;;;;;;;28.67;8.05;;;6.60;99.90;;;;;;5045787;28;20029;-75
2022/11/24 00:36:33;;;;;;;17.25;6.43;;;6.60;99.90;;;;;;5033373;28;20026;-73
2022/11/24 00:39:02;;;;;;;22.83;7.30;;;6.60;99.90;;;;;;5033951;28;20018;-74
2022/11/24 00:41:28;;;;;;;17.05;6.53;;;6.60;99.90;;;;;;5035309;28;20028;-74
2022/11/24 00:43:54;;;;;;;23.88;6.70;;;6.60;99.90;;;;;;5035480;28;20148;-73
2022/11/24 00:46:21;;;;;;;25.70;7.88;;;6.60;99.90;;;;;;5035098;28;20032;-73
2022/11/24 00:48:47;;;;;;;21.90;6.93;;;6.60;99.90;;;;;;5035219;28;20028;-73
2022/11/24 00:51:14;;;;;;;29.05;7.18;;;6.60;99.90;;;;;;5035355;28;20101;-74
2022/11/24 00:53:40;;;;;;;26.85;6.63;;;6.60;99.90;;;;;;5035488;28;20441;-73
2022/11/24 00:56:06;;;;;;;22.42;7.38;;;6.60;99.90;;;;;;5034551;28;20029;-72
2022/11/24 00:58:33;;;;;;;17.73;6.57;;;6.60;99.90;;;;;;5035251;28;20093;-75
2022/11/24 01:01:14;;;;;;;22.30;6.47;;;6.60;99.90;;;;;;5031760;28;20101;-74
2022/11/24 01:03:41;;;;;;;20.98;7.15;;;6.60;99.90;;;;;;5028121;28;20064;-73
2022/11/24 01:06:10;;;;;;;27.58;7.03;;;6.60;99.90;;;;;;5033713;28;20045;-74
2022/11/24 01:08:37;;;;;;;25.73;6.95;;;6.60;99.90;;;;;;5038199;28;20474;-74
2022/11/24 01:11:14;;;;;;;22.38;6.32;;;6.60;99.90;;;;;;5040471;28;20025;-74
2022/11/24 01:13:40;;;;;;;21.50;6.88;;;6.60;99.90;;;;;;5035204;28;20108;-74
2022/11/24 01:16:13;;;;;;;22.70;6.45;;;6.60;99.90;;;;;;5034344;28;20029;-74
2022/11/24 01:18:38;;;;;;;22.10;6.50;;;6.60;99.90;;;;;;5035136;28;20053;-74
2022/11/24 01:21:04;;;;;;;18.70;6.18;;;6.50;99.90;;;;;;5035257;28;20474;-74
2022/11/24 01:23:30;;;;;;;19.10;6.10;;;6.60;99.90;;;;;;5035071;28;20132;-73
2022/11/24 01:25:55;;;;;;;18.20;6.20;;;6.60;99.90;;;;;;5034803;28;20072;-75
2022/11/24 01:28:21;;;;;;;20.60;6.30;;;6.60;99.90;;;;;;5035414;28;20548;-73
2022/11/24 01:30:56;;;;;;;21.02;6.70;;;6.60;99.90;;;;;;5040974;28;20035;-73
2022/11/24 01:33:22;;;;;;;29.13;7.25;;;6.60;99.90;;;;;;5054265;28;20034;-75
2022/11/24 01:35:47;;;;;;;28.30;6.90;;;6.60;99.90;;;;;;5047928;28;20036;-75
2022/11/24 01:38:13;;;;;;;27.38;7.50;;;6.60;99.90;;;;;;5036251;28;20075;-74
2022/11/24 01:40:38;;;;;;;26.98;7.07;;;6.60;99.90;;;;;;5036263;28;20104;-75
2022/11/24 01:43:18;;;;;;;22.75;7.35;;;6.50;99.90;;;;;;5053333;28;20080;-74
2022/11/24 01:45:45;;;;;;;21.67;6.93;;;6.50;99.90;;;;;;5038810;28;20032;-75
2022/11/24 01:48:19;;;;;;;27.13;7.22;;;6.50;99.90;;;;;;5038391;28;20032;-75
2022/11/24 01:50:46;;;;;;;;;;;6.60;99.90;;;;;;5042140;28;20029;-74
2022/11/24 01:53:13;;;;;;;21.15;6.80;;;6.60;99.90;;;;;;5035092;28;20003;-74
2022/11/24 01:55:40;;;;;;;25.60;7.20;;;6.60;99.90;;;;;;5033760;28;20112;-74
2022/11/24 01:58:17;;;;;;;20.55;6.30;;;6.50;99.90;;;;;;5032892;28;20052;-74
2022/11/24 02:00:44;;;;;;;24.35;8.00;;;6.60;99.90;;;;;;5033939;28;20128;-74
2022/11/24 02:03:14;;;;;;;22.17;7.47;;;6.50;99.90;;;;;;5033609;28;20026;-74
2022/11/24 02:06:15;;;;;;;20.42;7.72;;;6.50;99.90;;;;;;5033410;28;20108;-74
2022/11/24 02:09:10;;;;;;;19.17;6.38;;;6.50;99.90;;;;;;5021677;28;20073;-75
2022/11/24 02:11:38;;;;;;;22.70;6.95;;;6.60;99.90;;;;;;5033889;28;20026;-74
2022/11/24 02:14:10;;;;;;;18.77;6.55;;;6.60;99.90;;;;;;5033689;28;20029;-74
2022/11/24 02:16:37;;;;;;;25.02;7.78;;;6.60;99.90;;;;;;5033234;28;20083;-74
2022/11/24 02:19:10;;;;;;;22.17;7.28;;;6.60;99.90;;;;;;5033507;28;20022;-73
2022/11/24 02:21:35;;;;;;;20.67;7.05;;;6.60;99.90;;;;;;5033231;28;20037;-72
2022/11/24 02:24:23;;;;;;;23.90;7.32;;;6.60;99.90;;;;;;5033429;28;20030;-74
2022/11/24 02:26:50;;;;;;;23.45;7.65;;;6.50;99.90;;;;;;5033197;28;20021;-75
2022/11/24 02:29:17;;;;;;;21.75;7.70;;;6.60;99.90;;;;;;5033169;28;20052;-72
2022/11/24 02:31:54;;;;;;;24.30;7.15;;;6.60;99.90;;;;;;5033476;28;20025;-74
2022/11/24 02:34:19;;;;;;;25.88;7.97;;;6.60;99.90;;;;;;5034527;28;20033;-74
2022/11/24 02:36:45;;;;;;;19.85;7.00;;;6.50;99.90;;;;;;5040861;28;20467;-75
2022/11/24 02:39:12;;;;;;;24.10;6.75;;;6.50;99.90;;;;;;5041592;28;20035;-73
2022/11/24 02:41:49;;;;;;;18.48;6.63;;;6.50;99.90;;;;;;5045061;28;20064;-74
2022/11/24 02:44:17;;;;;;;15.98;6.03;;;6.50;99.90;;;;;;5052582;28;20085;-74
2022/11/24 02:46:43;;;;;;;22.52;7.70;;;6.50;99.90;;;;;;5043896;28;20014;-73
2022/11/24 02:49:08;;;;;;;22.92;8.02;;;6.50;99.90;;;;;;5033230;28;20097;-72
2022/11/24 02:51:34;;;;;;;25.85;7.15;;;6.50;99.90;;;;;;5031583;28;20018;-74
2022/11/24 02:54:00;;;;;;;17.63;6.53;;;6.50;99.90;;;;;;5031977;28;20018;-73
2022/11/24 02:56:26;;;;;;;22.58;7.20;;;6.40;99.90;;;;;;5032499;28;20104;-74
2022/11/24 02:58:51;;;;;;;18.45;6.90;;;6.40;99.90;;;;;;5034305;28;20309;-73
2022/11/24 03:01:17;;;;;;;19.17;7.22;;;6.40;99.90;;;;;;5035704;28;20071;-73
2022/11/24 03:03:43;;;;;;;20.45;7.00;;;6.50;99.90;;;;;;5034104;28;20018;-73
2022/11/24 03:06:08;;;;;;;18.70;5.95;;;6.50;99.90;;;;;;5033056;28;20030;-73
2022/11/24 03:08:34;;;;;;;20.17;6.68;;;6.50;99.90;;;;;;5032846;28;20100;-74
2022/11/24 03:11:01;;;;;;;23.15;7.88;;;6.50;99.90;;;;;;5031373;28;20021;-73
2022/11/24 03:13:26;;;;;;;23.13;6.80;;;6.50;99.90;;;;;;5032777;28;20029;-73
2022/11/24 03:15:52;;;;;;;21.20;7.00;;;6.40;99.90;;;;;;5032880;28;20094;-73
2022/11/24 03:18:18;;;;;;;25.17;6.95;;;6.40;99.90;;;;;;5036022;28;20032;-73
2022/11/24 03:20:43;;;;;;;25.17;7.70;;;6.30;99.90;;;;;;5035368;28;20025;-73
2022/11/24 03:23:09;;;;;;;22.65;7.68;;;6.30;99.90;;;;;;5032677;28;20514;-73
2022/11/24 03:25:34;;;;;;;24.63;8.25;;;6.20;99.90;;;;;;5032016;28;20030;-73
2022/11/24 03:28:01;;;;;;;17.70;7.35;;;;;;;;;;5053692;22;20116;-78
2022/11/24 03:30:27;;;;;;;26.38;7.90;;;6.30;99.90;;;;;;5034758;28;20033;-78
2022/11/24 03:32:52;;;;;;;27.92;8.18;;;6.30;99.90;;;;;;5036218;28;20113;-78
2022/11/24 03:35:22;;;;;;;21.75;7.18;;;6.30;99.90;;;;;;5033807;28;20040;-77
2022/11/24 03:37:48;;;;;;;21.95;7.25;;;6.30;99.90;;;;;;5033806;28;20026;-78
2022/11/24 03:40:13;;;;;;;25.13;7.70;;;6.30;99.90;;;;;;5035165;28;20071;-79
2022/11/24 03:42:39;;;;;;;27.73;8.38;;;6.40;99.90;;;;;;5033616;28;20033;-78
2022/11/24 03:45:05;;;;;;;26.00;8.40;;;6.40;99.90;;;;;;5034464;28;20028;-77
2022/11/24 03:47:31;;;;;;;26.20;8.32;;;6.40;99.90;;;;;;5039678;28;20013;-79
2022/11/24 03:49:56;;;;;;;26.10;7.82;;;6.50;99.90;;;;;;5052635;28;20056;-78
2022/11/24 03:52:25;;;;;;;28.58;8.52;;;6.40;99.90;;;;;;5063851;28;20048;-77
2022/11/24 03:54:51;;;;;;;25.80;8.05;;;;;;;;;;5056592;28;20045;-78
2022/11/24 03:57:17;;;;;;;22.35;7.68;;;;;;;;;;5051018;28;20076;-77
2022/11/24 03:59:43;;;;;;;16.08;7.15;;;;;;;;;;5051795;28;20079;-77
2022/11/24 04:02:09;;;;;;;24.17;7.80;;;;;;;;;;5051958;28;20025;-77
2022/11/24 04:04:35;;;;;;;18.58;6.95;;;;;;;;;;5050167;28;20033;-77
2022/11/24 04:07:01;;;;;;;26.25;7.57;;;;;;;;;;5049447;28;20025;-77
2022/11/24 04:09:27;;;;;;;22.60;7.10;;;;;;;;;;5050022;28;20060;-76
2022/11/24 04:14:37;;;;;;;20.48;6.57;;;;;;;;;;5054875;28;20078;-76
2022/11/24 04:17:04;;;;;;;18.52;7.30;;;;;;;;;;5054800;28;20029;-76
2022/11/24 04:19:30;;;;;;;26.08;7.85;;;;;;;;;;5056455;28;20086;-76
2022/11/24 04:21:56;;;;;;;20.05;6.53;;;;;;;;;;5057422;28;20036;-76
2022/11/24 04:24:22;;;;;;;24.50;7.13;;;;;;;;;;5056561;28;20021;-78
2022/11/24 04:26:47;;;;;;;16.67;6.35;;;;;;;;;;5057141;28;20025;-78
2022/11/24 04:29:13;;;;;;;19.25;6.28;;;;;;;;;;5058527;28;20040;-79
2022/11/24 04:31:39;;;;;;;30.75;7.57;;;;;;;;;;5058276;28;20024;-77
2022/11/24 04:34:05;;;;;;;22.08;6.97;;;;;;;;;;5057320;28;20040;-77
2022/11/24 04:36:31;;;;;;;31.92;6.72;;;;;;;;;;5061251;28;20025;-78
2022/11/24 04:38:57;;;;;;;21.10;6.68;;;;;;;;;;5069077;28;20021;-77
2022/11/24 04:41:23;;;;;;;23.90;7.15;;;;;;;;;;5066871;28;20166;-75
2022/11/24 04:43:50;;;;;;;22.48;6.68;;;;;;;;;;5073684;28;20055;-76
2022/11/24 04:46:15;;;;;;;22.27;8.02;;;;;;;;;;5074465;28;20033;-78
2022/11/24 04:48:41;;;;;;;24.67;8.35;;;;;;;;;;5078095;28;20013;-81
2022/11/24 04:51:07;;;;;;;24.58;6.97;;;;;;;;;;5077900;28;20029;-80
2022/11/24 04:53:33;;;;;;;24.83;7.95;;;;;;;;;;5076685;28;20097;-77
2022/11/24 04:56:03;;;;;;;24.95;6.78;;;;;;;;;;5077821;28;20088;-80
2022/11/24 04:58:29;;;;;;;20.55;7.03;;;;;;;;;;5079768;28;20080;-81
2022/11/24 05:00:55;;;;;;;19.95;6.97;;;;;;;;;;5075624;28;20025;-79
2022/11/24 05:03:21;;;;;;;19.45;7.30;;;;;;;;;;5075538;28;20043;-80
2022/11/24 05:05:47;;;;;;;19.42;6.55;;;;;;;;;;5078943;28;20025;-78
2022/11/24 05:08:13;;;;;;;17.92;7.68;;;;;;;;;;5079969;28;20013;-78
2022/11/24 05:10:39;;;;;;;22.23;7.40;;;;;;;;;;5079562;28;20017;-77
2022/11/24 05:13:12;;;;;;;22.05;6.97;;;;;;;;;;5079392;28;20063;-78
2022/11/24 05:15:39;;;;;;;26.15;7.75;;;;;;;;;;5079452;28;20032;-78
2022/11/24 05:18:10;;;;;;;24.83;7.93;;;;;;;;;;5079378;28;20077;-78
2022/11/24 05:20:36;;;;;;;17.52;7.22;;;;;;;;;;5079500;28;20013;-79
2022/11/24 05:23:03;;;;;;;21.30;8.13;;;;;;;;;;5079192;28;20017;-78
2022/11/24 05:25:29;;;;;;;17.45;7.30;;;;;;;;;;5077025;28;20033;-77
2022/11/24 05:27:58;;;;;;;20.88;7.57;;;;;;;;;;5076598;28;20021;-78
2022/11/24 05:30:24;;;;;;;20.27;7.43;;;;;;;;;;5063283;28;20032;-76
2022/11/24 05:32:50;;;;;;;19.45;7.07;;;;;;;;;;5056420;28;20032;-76
2022/11/24 05:35:17;;;;;;;26.52;7.90;;;;;;;;;;5055320;28;20440;-78
2022/11/24 05:37:43;;;;;;;18.63;6.85;;;;;;;;;;5055351;28;20024;-76
2022/11/24 05:40:09;;;;;;;28.02;8.82;;;;;;;;;;5055552;28;20040;-77
2022/11/24 05:42:41;;;;;;;24.15;8.65;;;;;;;;;;5057271;28;20032;-75
2022/11/24 05:45:10;;;;;;;28.77;7.90;;;;;;;;;;5056017;28;20025;-75
2022/11/24 05:47:36;;;;;;;23.48;7.53;;;;;;;;;;5055990;28;20043;-76
2022/11/24 05:50:02;;;;;;;16.88;7.00;;;;;;;;;;5057140;28;20032;-77
2022/11/24 05:52:28;;;;;;;25.45;7.80;;;;;;;;;;5055319;28;20389;-76
2022/11/24 05:54:54;;;;;;;23.00;7.97;;;;;;;;;;5055346;28;20033;-78
2022/11/24 05:57:20;;;;;;;17.52;7.18;;;;;;;;;;5056535;28;20036;-76
2022/11/24 05:59:46;;;;;;;25.70;8.05;;;;;;;;;;5056401;28;20056;-77
2022/11/24 06:02:12;;;;;;;26.15;8.13;;;;;;;;;;5058423;28;20370;-76
2022/11/24 06:04:38;;;;;;;25.13;7.40;;;;;;;;;;5055020;28;20027;-77
2022/11/24 06:07:07;;;;;;;18.88;7.18;;;;;;;;;;5056278;28;20029;-77
2022/11/24 06:09:35;;;;;;;26.30;7.65;;;;;;;;;;5057702;28;20412;-76
2022/11/24 06:12:02;;;;;;;23.80;7.45;;;;;;;;;;5057987;28;20111;-77
2022/11/24 06:14:28;;;;;;;31.15;8.25;;;;;;;;;;5055947;28;20112;-77
2022/11/24 06:16:54;;;;;;;24.50;7.68;;;;;;;;;;5055166;28;20450;-76
2022/11/24 06:19:20;;;;;;;26.80;7.90;;;;;;;;;;5058989;28;20052;-75
2022/11/24 06:21:46;;;;;;;23.27;7.72;;;;;;;;;;5056664;28;20028;-77
2022/11/24 06:24:13;;;;;;;31.52;7.53;;;;;;;;;;5056369;28;20028;-76
2022/11/24 06:26:39;;;;;;;33.72;8.27;;;;;;;;;;5055588;28;20018;-78
2022/11/24 06:29:05;;;;;;;31.60;7.90;;;;;;;;;;5054898;28;20029;-76
2022/11/24 06:31:31;;;;;;;28.67;7.70;;;;;;;;;;5055646;28;20028;-76
2022/11/24 06:33:58;;;;;;;20.65;7.72;;;;;;;;;;5054326;28;20049;-78
2022/11/24 06:36:24;;;;;;;20.58;7.53;;;;;;;;;;5039062;28;20026;-75
2022/11/24 06:38:50;;;;;;;22.38;8.07;;;;;;;;;;5029951;28;20029;-76
2022/11/24 06:41:17;;;;;;;30.67;8.38;;;;;;;;;;5036749;28;20022;-77
2022/11/24 06:43:43;;;;;;;25.23;9.02;;;;;;;;;;5036360;28;20021;-77
2022/11/24 06:46:09;;;;;;;25.60;8.45;;;;;;;;;;5029215;28;20383;-77
2022/11/24 06:48:35;;;;;;;24.80;7.55;;;;;;;;;;5034536;28;20109;-76
2022/11/24 06:51:02;;;;;;;23.30;7.82;;;;;;;;;;5036065;28;20033;-77
2022/11/24 06:53:32;;;;;;;27.63;8.43;;;;;;;;;;5035020;28;20108;-76
2022/11/24 06:55:59;;;;;;;29.73;8.82;;;;;;;;;;5033382;28;20029;-76
2022/11/24 06:58:25;;;;;;;23.98;8.43;;;;;;;;;;5033229;28;20053;-76
2022/11/24 07:00:51;;;;;;;24.73;8.88;;;;;;;;;;5040683;28;20044;-77
2022/11/24 07:03:18;;;;;;;29.98;9.23;;;;;;;;;;5039465;28;20478;-76
2022/11/24 07:05:44;;;;;;;27.92;9.60;;;;;;;;;;5041935;28;20040;-76
2022/11/24 07:08:10;;;;;;;25.85;9.00;;;;;;;;;;5046475;28;20140;-77
2022/11/24 07:10:36;;;;;;;26.35;9.05;;;;;;;;;;5038229;28;20446;-77
2022/11/24 07:13:03;;;;;;;34.55;9.30;;;;;;;;;;5035021;28;20363;-77
2022/11/24 07:15:29;;;;;;;23.92;9.07;;;;;;;;;;5034668;28;20029;-79
2022/11/24 07:17:55;;;;;;;30.63;9.23;;;;;;;;;;5035643;28;20092;-79
2022/11/24 07:20:21;;;;;;;38.45;9.07;;;;;;;;;;5035812;28;20060;-78
2022/11/24 07:22:47;;;;;;;23.55;9.02;;;;;;;;;;5040589;28;20036;-77
2022/11/24 07:25:13;;;;;;;30.58;9.48;;;;;;;;;;5037936;28;20053;-76
2022/11/24 07:27:39;;;;;;;24.08;9.88;;;;;;;;;;5034676;28;20029;-77
2022/11/24 07:30:06;;;;;;;31.73;9.75;;;;;;;;;;5035007;28;20052;-78
2022/11/24 07:32:32;;;;;;;31.27;10.23;;;;;;;;;;5035452;28;20036;-75
2022/11/24 07:34:58;;;;;;;32.83;9.73;;;;;;;;;;5033585;28;20382;-74
2022/11/24 07:37:24;;;;;;;27.70;9.75;;;;;;;;;;5032352;28;20026;-75
2022/11/24 07:39:50;;;;;;;34.05;11.23;;;;;;;;;;5035600;28;20029;-76
2022/11/24 07:42:16;;;;;;;33.28;9.98;;;;;;;;;;5043764;28;20092;-76
2022/11/24 07:44:42;;;;;;;26.48;9.00;;;;;;;;;;5038627;28;20382;-77
2022/11/24 07:47:08;;;;;;;49.78;9.95;;;;;;;;;;5039648;28;20060;-79
2022/11/24 07:49:34;;;;;;;31.00;10.15;;;;;;;;;;5057325;28;20013;-82
2022/11/24 07:52:00;;;;;;;33.40;9.40;;;;;;;;;;5057899;28;20033;-81
2022/11/24 07:54:26;;;;;;;27.10;9.05;;;;;;;;;;5059000;28;20057;-77
2022/11/24 07:56:52;;;;;;;31.10;9.10;;;;;;;;;;5058419;28;20021;-75
2022/11/24 07:59:18;;;;;;;22.33;9.63;;;;;;;;;;5051275;28;20060;-76
2022/11/24 08:01:44;;;;;;;33.10;9.82;;;;;;;;;;5040958;28;20047;-74
2022/11/24 08:04:10;;;;;;;27.27;10.10;;;;;;;;;;5045004;28;20032;-78
2022/11/24 08:07:01;;;;;;;29.42;9.95;;;;;;;;;;5041662;28;20033;-81
2022/11/24 08:09:32;;;;;;;21.15;8.77;;;;;;;;;;5052608;28;20037;-79
2022/11/24 08:11:58;;;;;;;20.55;8.50;;;;;;;;;;5044005;28;20394;-75
2022/11/24 08:14:24;;;;;;;23.15;9.50;;;;;;;;;;5040555;28;20073;-79
2022/11/24 08:16:50;;;;;;;32.75;10.02;;;;;;;;;;5047041;28;20040;-76
2022/11/24 08:19:16;;;;;;;32.83;9.88;;;;;;;;;;5046904;28;20366;-78
2022/11/24 08:21:42;;;;;;;39.15;10.15;;;;;;;;;;5058384;28;20025;-77
2022/11/24 08:24:08;;;;;;;30.67;10.60;;;;;;;;;;5059714;28;20104;-77
2022/11/24 08:26:34;;;;;;;35.58;10.85;;;;;;;;;;5057849;28;20032;-76
2022/11/24 08:29:00;;;;;;;33.85;10.77;;;;;;;;;;5057979;28;20037;-77
2022/11/24 08:31:31;;;;;;;42.83;11.50;;;;;;;;;;5057459;28;20025;-76
2022/11/24 08:33:58;;;;;;;30.35;11.43;;;;;;;;;;5058104;28;20532;-76
2022/11/24 08:36:24;;;;;;;32.13;10.68;;;;;;;;;;5056571;28;20438;-77
2022/11/24 08:38:53;;;;;;;30.92;11.00;;;;;;;;;;5056214;28;20056;-75
2022/11/24 08:41:19;;;;;;;32.55;9.75;;;;;;;;;;5054999;28;20120;-76
2022/11/24 08:43:45;;;;;;;37.03;10.88;;;;;;;;;;5055072;28;20056;-76
2022/11/24 08:46:15;;;;;;;31.58;10.50;;;;;;;;;;5056792;28;20036;-77
2022/11/24 08:48:41;;;;;;;32.90;10.50;;;;;;;;;;5061236;28;20048;-77
2022/11/24 08:51:09;;;;;;;31.52;10.27;;;;;;;;;;5064857;28;20470;-76
2022/11/24 08:53:35;;;;;;;32.83;10.70;;;;;;;;;;5057423;28;20029;-75
2022/11/24 08:56:01;;;;;;;44.17;12.07;;;;;;;;;;5056575;28;20037;-76
2022/11/24 08:58:28;;;;;;;53.95;16.45;;;;;;;;;;5055507;28;20032;-76
2022/11/24 09:00:54;;;;;;;56.35;18.42;;;;;;;;;;5060616;28;20039;-79
2022/11/24 09:03:20;;;;;;;50.40;14.13;;;;;;;;;;5056885;28;20037;-76
2022/11/24 09:05:46;;;;;;;58.30;13.23;;;;;;;;;;5058528;28;20036;-79
2022/11/24 09:08:12;;;;;;;43.08;12.60;;;;;;;;;;5057192;28;20028;-77
2022/11/24 09:10:38;;;;;;;42.97;12.85;;;;;;;;;;5057537;28;20040;-76
2022/11/24 09:13:04;;;;;;;34.00;10.80;;;;;;;;;;5055158;28;20025;-76
2022/11/24 09:15:29;;;;;;;35.17;10.48;;;;;;;;;;5077692;28;20071;-76
2022/11/24 09:17:56;;;;;;;43.00;12.63;;;;;;;;;;5074487;28;20569;-77
2022/11/24 09:20:22;;;;;;;39.90;11.82;;;;;;;;;;5061877;28;20032;-77
2022/11/24 09:22:48;;;;;;;35.35;10.95;;;;;;;;;;5066247;28;20486;-77
2022/11/24 09:25:14;;;;;;;36.15;11.80;;;;;;;;;;5054890;28;20025;-76
2022/11/24 09:27:40;;;;;;;34.58;10.07;;;;;;;;;;5034214;28;20471;-76
2022/11/24 09:30:07;;;;;;;29.30;9.85;;;;;;;;;;5035028;28;20033;-76
2022/11/24 09:32:33;;;;;;;33.92;10.25;;;;;;;;;;5035461;28;20382;-77
2022/11/24 09:34:59;;;;;;;32.17;11.23;;;;;;;;;;5035618;28;20034;-78
2022/11/24 09:37:25;;;;;;;42.45;10.90;;;;;;;;;;5034185;28;20033;-77
2022/11/24 09:39:50;;;;;;;33.92;9.30;;;;;;;;;;5036842;28;20364;-79
2022/11/24 09:42:25;;;;;;;30.23;8.85;;;;;;;;;;5036244;28;20037;-77
2022/11/24 09:44:51;;;;;;;;;;;;;;;;;;5034768;28;20025;-76
2022/11/24 09:47:38;;;;;;;51.42;13.05;;;;;;;;;;5035048;28;19951;-76
2022/11/24 09:50:05;;;;;;;50.75;17.63;;;;;;;;;;5036296;28;20026;-76
2022/11/24 09:52:31;;;;;;;32.78;9.57;;;;;;;;;;5035564;28;20064;-75
2022/11/24 09:54:59;;;;;;;33.42;9.75;;;;;;;;;;5034532;28;20057;-76
2022/11/24 09:57:26;;;;;;;38.50;9.57;;;;;;;;;;5034315;28;20049;-75
2022/11/24 09:59:52;;;;;;;37.47;9.00;;;;;;;;;;5034805;28;20509;-76
2022/11/24 10:02:18;;;;;;;43.40;10.52;;;;;;;;;;5034749;28;20026;-76
2022/11/24 10:04:45;;;;;;;33.35;8.57;;;;;;;;;;5034435;28;20402;-75
2022/11/24 10:07:10;;;;;;;36.20;8.60;;;;;;;;;;5033751;28;20036;-76
2022/11/24 10:09:48;;;;;;;27.38;7.90;;;;;;;;;;5034702;28;20355;-77
2022/11/24 10:12:33;;;;;;;36.38;8.02;;;;;;;;;;5035869;28;20382;-76
2022/11/24 10:15:18;;;;;;;36.42;8.02;;;;;;;;;;5034376;28;20025;-76
2022/11/24 10:17:44;;;;;;;39.40;9.02;;;;;;;;;;5034204;28;20390;-76
2022/11/24 10:20:16;;;;;;;34.92;8.10;;;;;;;;;;5034286;28;20022;-77
2022/11/24 10:22:45;;;;;;;34.17;9.25;;;;;;;;;;5033401;28;20030;-76
2022/11/24 10:25:11;;;;;;;47.30;11.40;;;;;;;;;;5034947;28;20029;-77
2022/11/24 10:27:42;;;;;;;32.28;7.97;;;;;;;;;;5034720;28;20444;-75
2022/11/24 10:30:13;;;;;;;38.55;7.72;;;;;;;;;;5034499;28;20044;-76
2022/11/24 10:32:46;;;;;;;39.58;8.48;;;;;;;;;;5039329;28;20073;-78
2022/11/24 10:35:25;;;;;;;43.80;8.23;;;;;;;;;;5038009;28;20022;-76
2022/11/24 10:38:02;;;;;;;42.00;7.90;;;;;;;;;;5039557;28;20057;-77
2022/11/24 10:40:33;;;;;;;39.70;8.07;;;;;;;;;;5040727;28;20112;-77
2022/11/24 10:42:59;;;;;;;37.08;6.97;;;;;;;;;;5038675;28;20048;-75
2022/11/24 10:45:26;;;;;;;46.53;7.40;;;;;;;;;;5037991;28;20036;-76
2022/11/24 10:47:52;;;;;;;45.72;7.78;;;;;;;;;;5037902;28;20372;-76
2022/11/24 10:50:18;;;;;;;45.97;8.02;;;;;;;;;;5051456;28;20023;-78
2022/11/24 10:52:47;;;;;;;41.00;7.65;;;;;;;;;;5043546;28;20029;-76
2022/11/24 10:55:13;;;;;;;40.83;7.70;;;;;;;;;;5037335;28;20108;-77
2022/11/24 10:57:40;;;;;;;40.58;7.60;;;;;;;;;;5039349;28;20056;-75
2022/11/24 11:00:33;;;;;;;36.50;6.45;;;;;;;;;;5039707;28;20032;-77
2022/11/24 11:03:22;;;;;;;51.85;9.38;;;;;;;;;;5036207;28;20025;-76
2022/11/24 11:05:50;;;;;;;38.58;7.38;;;;;;;;;;5044695;28;20080;-76
2022/11/24 11:08:18;;;;;;;37.80;8.00;;;;;;;;;;5046574;28;20021;-77
2022/11/24 11:10:45;;;;;;;42.33;8.65;;;;;;;;;;5050885;28;20025;-76
2022/11/24 11:13:20;;;;;;;47.72;7.47;;;;;;;;;;5051477;28;20033;-75
2022/11/24 11:15:46;;;;;;;44.42;7.53;;;;;;;;;;5050920;28;20033;-76
2022/11/24 11:18:15;;;;;;;41.63;7.90;;;;;;;;;;5042454;28;20029;-82
2022/11/24 11:20:48;;;;;;;45.33;8.13;;;;;;;;;;5032819;28;20168;-76
2022/11/24 11:23:26;;;;;;;44.65;8.20;;;;;;;;;;5035123;28;20075;-76
2022/11/24 11:26:12;;;;;;;38.90;8.32;;;;;;;;;;5034526;28;20521;-75
2022/11/24 11:28:38;;;;;;;39.45;7.47;;;;;;;;;;5034898;28;20048;-76
2022/11/24 11:31:05;;;;;;;46.58;7.47;;;;;;;;;;5035151;28;20158;-75
2022/11/24 11:33:32;;;;;;;37.63;7.40;;;;;;;;;;5048851;28;20025;-76
2022/11/24 11:36:00;;;;;;;39.10;7.47;;;;;;;;;;5050698;28;20089;-74
2022/11/24 11:38:28;;;;;;;35.63;6.53;;;;;;;;;;5047318;28;20026;-75
2022/11/24 11:40:54;;;;;;;37.42;7.00;;;;;;;;;;5047162;28;20089;-76
2022/11/24 11:43:28;;;;;;;35.58;6.53;;;;;;;;;;5046590;28;20096;-76
2022/11/24 11:46:00;;;;;;;41.03;7.85;;;;;;;;;;5045665;28;20064;-75
2022/11/24 11:48:30;;;;;;;41.92;9.75;;;;;;;;;;5043360;28;20033;-76
2022/11/24 11:50:56;;;;;;;36.90;7.00;;;;;;;;;;5042221;28;20026;-76
2022/11/24 11:53:22;;;;;;;32.95;6.97;;;;;;;;;;5043808;28;20601;-76
2022/11/24 11:55:54;;;;;;;36.30;7.93;;;;;;;;;;5042827;28;20072;-75
2022/11/24 11:58:32;;;;;;;37.65;8.45;;;;;;;;;;5047220;28;20033;-76
2022/11/24 12:01:15;;;;;;;36.83;7.95;;;;;;;;;;5045562;28;20387;-76
2022/11/24 12:03:49;;;;;;;27.88;6.10;;;;;;;;;;5043598;28;20037;-76
2022/11/24 12:06:18;;;;;;;45.10;7.80;;;;;;;;;;5048339;28;20029;-76
2022/11/24 12:09:07;;;;;;;42.88;7.45;;;;;;;;;;5040142;28;20029;-76
2022/11/24 12:11:42;;;;;;;36.28;7.10;;;;;;;;;;5022084;28;20087;-76
2022/11/24 12:14:17;;;;;;;37.28;7.80;;;;;;;;;;5032081;28;20359;-77
2022/11/24 12:16:52;;;;;;;41.95;7.72;;;;;;;;;;5031478;28;20056;-76
2022/11/24 12:19:40;;;;;;;33.30;7.30;;;;;;;;;;5033169;28;20025;-76
2022/11/24 12:22:42;;;;;;;39.40;8.65;;;;;;;;;;5035558;28;20021;-76
2022/11/24 12:25:18;;;;;;;33.40;7.50;;;;;;;;;;5014475;28;20026;-77
2022/11/24 12:27:47;;;;;;;37.20;8.23;;;;;;;;;;5030091;28;20042;-76
2022/11/24 12:30:17;;;;;;;43.92;12.18;;;;;;;;;;5040274;28;20374;-77
2022/11/24 12:33:02;;;;;;;51.50;9.70;;;;;;;;;;5039578;28;20053;-77
2022/11/24 12:35:50;;;;;;;44.78;8.13;;;;;;;;;;5051274;28;20045;-77
2022/11/24 12:38:22;;;;;;;40.05;7.93;;;;;;;;;;5057759;28;20025;-77
2022/11/24 12:41:07;;;;;;;38.30;8.13;;;;;;;;;;5058555;28;20013;-77
2022/11/24 12:43:34;;;;;;;75.60;30.05;;;;;;;;;;5058561;28;20025;-75
2022/11/24 12:46:03;;;;;;;45.38;8.88;;;;;;;;;;5058400;28;20072;-77
2022/11/24 12:48:48;;;;;;;53.80;8.23;;;;;;;;;;5059130;28;20029;-76
2022/11/24 12:51:17;;;;;;;30.35;7.05;;;;;;;;;;5058922;28;20033;-77
2022/11/24 12:53:44;;;;;;;43.67;7.93;;;;;;;;;;5057462;28;20053;-75
2022/11/24 12:56:12;;;;;;;42.80;7.30;;;;;;;;;;5050600;28;20072;-76
2022/11/24 12:58:44;;;;;;;35.05;7.03;;;;;;;;;;5050762;28;20461;-77
2022/11/24 13:01:24;;;;;;;37.83;8.07;;;;;;;;;;5048648;28;20034;-77
2022/11/24 13:03:58;;;;;;;37.33;7.78;;;;;;;;;;5051300;28;20029;-78
2022/11/24 13:06:28;;;;;;;32.72;7.15;;;;;;;;;;5050058;28;20037;-77
2022/11/24 13:08:55;;;;;;;44.83;7.53;;;;;;;;;;5063069;28;20037;-76
2022/11/24 13:11:21;;;;;;;38.05;8.18;;;;;;;;;;5069157;28;20089;-76
2022/11/24 13:14:00;;;;;;;39.33;7.88;;;;;;;;;;5075187;28;20021;-77
2022/11/24 13:16:27;;;;;;;44.60;8.43;;;;;;;;;;5035060;28;20025;-77
2022/11/24 13:19:00;;;;;;;30.90;7.85;;;;;;;;;;5035662;28;20029;-76
2022/11/24 13:21:34;;;;;;;33.75;7.35;;;;;;;;;;5035478;28;20044;-76
2022/11/24 13:24:00;;;;;;;;;;;;;;;;;;5034753;28;20025;-76
2022/11/24 13:26:28;;;;;;;47.95;7.68;;;;;;;;;;5033248;28;19905;-76
2022/11/24 13:29:00;;;;;;;34.80;7.65;;;;;;;;;;5034234;28;20037;-75
2022/11/24 13:31:26;;;;;;;37.55;7.45;;;;;;;;;;5036566;28;20022;-76
2022/11/24 13:33:52;;;;;;;42.30;8.55;;;;;;;;;;5035388;28;20021;-76
2022/11/24 13:36:31;;;;;;;27.77;7.43;;;;;;;;;;5035956;28;20025;-76
2022/11/24 13:38:58;;;;;;;38.67;7.97;;;;;;;;;;5034765;28;20105;-77
2022/11/24 13:41:33;;;;;;;44.70;8.75;;;;;;;;;;5035057;28;20029;-75
2022/11/24 13:44:14;;;;;;;39.13;10.77;;;;;;;;;;5033902;28;20021;-77
2022/11/24 13:46:59;;;;;;;39.30;9.18;;;;;;;;;;5032618;28;20025;-77
2022/11/24 13:49:37;;;;;;;44.00;8.07;;;;;;;;;;5033282;28;20022;-76
2022/11/24 13:52:22;;;;;;;46.92;8.88;;;;;;;;;;5034624;28;20029;-76
2022/11/24 13:54:48;;;;;;;45.35;7.72;;;;;;;;;;5034472;28;20083;-77
2022/11/24 13:57:34;;;;;;;29.95;7.20;;;;;;;;;;5033775;28;20025;-77
2022/11/24 14:00:00;;;;;;;35.08;7.22;;;;;;;;;;5034718;28;20025;-77
2022/11/24 14:02:27;;;;;;;27.95;7.07;;;;;;;;;;5035399;28;20075;-76
2022/11/24 14:04:54;;;;;;;37.80;7.15;;;;;;;;;;5032206;28;20120;-77
2022/11/24 14:07:21;;;;;;;40.38;7.63;;;;;;;;;;5033433;28;20533;-77
2022/11/24 14:09:49;;;;;;;42.85;7.78;;;;;;;;;;5034259;28;20355;-77
2022/11/24 14:12:17;;;;;;;35.90;6.90;;;;;;;;;;5035699;28;20407;-77